sensor_id;sensor_type;location;lat;lon;timestamp;pressure;altitude;pressure_sealevel;temperature;humidity
21869;BME280;11099;41.564;23.296;2023-09-18T00:01:49;97900.28;;;18.59;100.00
21869;BME280;11099;41.564;23.296;2023-09-18T00:04:15;97939.66;;;19.11;100.00
21869;BME280;11099;41.564;23.296;2023-09-18T00:06:41;97940.00;;;18.75;100.00
21869;BME280;11099;41.564;23.296;2023-09-18T00:09:06;97874.97;;;18.64;100.00
21869;BME280;11099;41.564;23.296;2023-09-18T00:11:37;97963.91;;;19.43;100.00
21869;BME280;11099;41.564;23.296;2023-09-18T00:14:04;97862.56;;;19.10;100.00
21869;BME280;11099;41.564;23.296;2023-09-18T00:16:30;97898.91;;;19.16;100.00
21869;BME280;11099;41.564;23.296;2023-09-18T00:18:57;97977.47;;;20.01;100.00
21869;BME280;11099;41.564;23.296;2023-09-18T00:21:23;97983.88;;;19.73;100.00
21869;BME280;11099;41.564;23.296;2023-09-18T00:23:51;97815.72;;;18.83;100.00
21869;BME280;11099;41.564;23.296;2023-09-18T00:26:17;97913.78;;;19.26;100.00
21869;BME280;11099;41.564;23.296;2023-09-18T00:28:42;97907.66;;;18.94;100.00
21869;BME280;11099;41.564;23.296;2023-09-18T00:31:08;97922.19;;;18.89;100.00
21869;BME280;11099;41.564;23.296;2023-09-18T00:33:33;97885.94;;;18.39;100.00
21869;BME280;11099;41.564;23.296;2023-09-18T00:35:59;97946.38;;;18.54;100.00
21869;BME280;11099;41.564;23.296;2023-09-18T00:38:24;97915.94;;;18.38;100.00
21869;BME280;11099;41.564;23.296;2023-09-18T00:40:50;97944.81;;;18.37;100.00
21869;BME280;11099;41.564;23.296;2023-09-18T00:43:15;97891.25;;;18.67;100.00
21869;BME280;11099;41.564;23.296;2023-09-18T00:45:45;97895.53;;;18.68;100.00
21869;BME280;11099;41.564;23.296;2023-09-18T00:48:14;98000.41;;;18.58;100.00
21869;BME280;11099;41.564;23.296;2023-09-18T00:50:40;97942.38;;;18.48;100.00
21869;BME280;11099;41.564;23.296;2023-09-18T00:53:14;97885.66;;;18.44;100.00
21869;BME280;11099;41.564;23.296;2023-09-18T00:55:41;97964.97;;;19.22;100.00
21869;BME280;11099;41.564;23.296;2023-09-18T00:58:07;98007.44;;;18.62;100.00
21869;BME280;11099;41.564;23.296;2023-09-18T01:00:33;97934.66;;;18.47;100.00
21869;BME280;11099;41.564;23.296;2023-09-18T01:02:59;97941.50;;;18.60;100.00
21869;BME280;11099;41.564;23.296;2023-09-18T01:05:25;97910.91;;;18.36;100.00
21869;BME280;11099;41.564;23.296;2023-09-18T01:07:51;98016.19;;;18.43;100.00
21869;BME280;11099;41.564;23.296;2023-09-18T01:10:17;97910.97;;;17.80;100.00
21869;BME280;11099;41.564;23.296;2023-09-18T01:13:14;97876.44;;;17.42;100.00
21869;BME280;11099;41.564;23.296;2023-09-18T01:15:56;98005.78;;;18.14;100.00
21869;BME280;11099;41.564;23.296;2023-09-18T01:18:23;97959.78;;;18.07;100.00
21869;BME280;11099;41.564;23.296;2023-09-18T01:20:48;97975.13;;;18.19;100.00
21869;BME280;11099;41.564;23.296;2023-09-18T01:23:14;98041.88;;;18.53;100.00
21869;BME280;11099;41.564;23.296;2023-09-18T01:25:39;97966.09;;;18.27;100.00
21869;BME280;11099;41.564;23.296;2023-09-18T01:28:05;97900.56;;;17.95;100.00
21869;BME280;11099;41.564;23.296;2023-09-18T01:30:30;97932.53;;;17.96;100.00
21869;BME280;11099;41.564;23.296;2023-09-18T01:32:58;98001.06;;;18.39;100.00
21869;BME280;11099;41.564;23.296;2023-09-18T01:35:26;98021.94;;;18.42;100.00
21869;BME280;11099;41.564;23.296;2023-09-18T01:37:59;98017.38;;;18.58;100.00
21869;BME280;11099;41.564;23.296;2023-09-18T01:40:25;97906.72;;;17.67;100.00
21869;BME280;11099;41.564;23.296;2023-09-18T01:42:52;97905.06;;;17.75;100.00
21869;BME280;11099;41.564;23.296;2023-09-18T01:45:18;97938.25;;;17.67;100.00
21869;BME280;11099;41.564;23.296;2023-09-18T01:47:45;97902.69;;;17.33;100.00
21869;BME280;11099;41.564;23.296;2023-09-18T01:50:10;97926.69;;;17.66;100.00
21869;BME280;11099;41.564;23.296;2023-09-18T01:52:36;97904.03;;;17.67;100.00
21869;BME280;11099;41.564;23.296;2023-09-18T01:55:02;97953.94;;;18.49;100.00
21869;BME280;11099;41.564;23.296;2023-09-18T01:57:29;97940.53;;;18.36;100.00
21869;BME280;11099;41.564;23.296;2023-09-18T01:59:55;97947.88;;;18.83;100.00
21869;BME280;11099;41.564;23.296;2023-09-18T02:02:20;98013.28;;;19.28;100.00
21869;BME280;11099;41.564;23.296;2023-09-18T02:04:46;97954.81;;;18.37;100.00
21869;BME280;11099;41.564;23.296;2023-09-18T02:07:12;97917.25;;;18.00;100.00
21869;BME280;11099;41.564;23.296;2023-09-18T02:09:38;97955.38;;;18.14;100.00
21869;BME280;11099;41.564;23.296;2023-09-18T02:12:04;97866.63;;;17.50;100.00
21869;BME280;11099;41.564;23.296;2023-09-18T02:14:30;97886.31;;;17.66;100.00
21869;BME280;11099;41.564;23.296;2023-09-18T02:16:56;97962.44;;;17.91;100.00
21869;BME280;11099;41.564;23.296;2023-09-18T02:19:22;98045.19;;;18.47;100.00
21869;BME280;11099;41.564;23.296;2023-09-18T02:21:47;97954.47;;;17.42;100.00
21869;BME280;11099;41.564;23.296;2023-09-18T02:24:13;97895.56;;;17.00;100.00
21869;BME280;11099;41.564;23.296;2023-09-18T02:26:39;97928.91;;;17.24;100.00
21869;BME280;11099;41.564;23.296;2023-09-18T02:29:07;97997.13;;;17.68;100.00
21869;BME280;11099;41.564;23.296;2023-09-18T02:31:34;97950.94;;;17.66;100.00
21869;BME280;11099;41.564;23.296;2023-09-18T02:34:00;97988.19;;;18.04;100.00
21869;BME280;11099;41.564;23.296;2023-09-18T02:36:25;97990.13;;;18.48;100.00
21869;BME280;11099;41.564;23.296;2023-09-18T02:38:51;98014.47;;;18.35;100.00
21869;BME280;11099;41.564;23.296;2023-09-18T02:41:16;97986.09;;;18.26;100.00
21869;BME280;11099;41.564;23.296;2023-09-18T02:43:42;97884.44;;;17.54;100.00
21869;BME280;11099;41.564;23.296;2023-09-18T02:46:08;97947.81;;;17.64;100.00
21869;BME280;11099;41.564;23.296;2023-09-18T02:48:34;97914.88;;;17.43;100.00
21869;BME280;11099;41.564;23.296;2023-09-18T02:51:00;97934.31;;;17.76;100.00
21869;BME280;11099;41.564;23.296;2023-09-18T02:53:26;98018.19;;;18.31;100.00
21869;BME280;11099;41.564;23.296;2023-09-18T02:55:53;98021.00;;;18.50;100.00
21869;BME280;11099;41.564;23.296;2023-09-18T02:58:20;98020.91;;;18.47;100.00
21869;BME280;11099;41.564;23.296;2023-09-18T03:00:48;97949.53;;;17.44;100.00
21869;BME280;11099;41.564;23.296;2023-09-18T03:03:14;97923.84;;;17.34;100.00
21869;BME280;11099;41.564;23.296;2023-09-18T03:05:41;98024.88;;;18.37;100.00
21869;BME280;11099;41.564;23.296;2023-09-18T03:08:07;97935.03;;;18.17;100.00
21869;BME280;11099;41.564;23.296;2023-09-18T03:10:37;98026.47;;;18.82;100.00
21869;BME280;11099;41.564;23.296;2023-09-18T03:13:05;97902.03;;;18.36;100.00
21869;BME280;11099;41.564;23.296;2023-09-18T03:15:31;98031.16;;;19.16;100.00
21869;BME280;11099;41.564;23.296;2023-09-18T03:17:58;97901.16;;;17.88;100.00
21869;BME280;11099;41.564;23.296;2023-09-18T03:20:27;98026.09;;;18.39;100.00
21869;BME280;11099;41.564;23.296;2023-09-18T03:22:55;97994.16;;;18.26;100.00
21869;BME280;11099;41.564;23.296;2023-09-18T03:25:21;97986.81;;;17.82;100.00
21869;BME280;11099;41.564;23.296;2023-09-18T03:27:56;97948.59;;;17.64;100.00
21869;BME280;11099;41.564;23.296;2023-09-18T03:30:23;97999.50;;;17.70;100.00
21869;BME280;11099;41.564;23.296;2023-09-18T03:32:49;98020.84;;;17.75;100.00
21869;BME280;11099;41.564;23.296;2023-09-18T03:35:16;98014.63;;;17.74;100.00
21869;BME280;11099;41.564;23.296;2023-09-18T03:37:45;98018.78;;;17.72;100.00
21869;BME280;11099;41.564;23.296;2023-09-18T03:40:11;97900.25;;;17.16;100.00
21869;BME280;11099;41.564;23.296;2023-09-18T03:42:36;97886.28;;;17.38;100.00
21869;BME280;11099;41.564;23.296;2023-09-18T03:45:02;97949.81;;;18.23;100.00
21869;BME280;11099;41.564;23.296;2023-09-18T03:47:28;97989.00;;;18.64;100.00
21869;BME280;11099;41.564;23.296;2023-09-18T03:49:54;97962.56;;;18.54;100.00
21869;BME280;11099;41.564;23.296;2023-09-18T03:52:19;97947.84;;;18.36;100.00
21869;BME280;11099;41.564;23.296;2023-09-18T03:54:45;97971.31;;;18.07;100.00
21869;BME280;11099;41.564;23.296;2023-09-18T03:57:11;97971.88;;;17.85;100.00
21869;BME280;11099;41.564;23.296;2023-09-18T03:59:36;97886.50;;;17.45;100.00
21869;BME280;11099;41.564;23.296;2023-09-18T04:02:02;97969.38;;;17.92;100.00
21869;BME280;11099;41.564;23.296;2023-09-18T04:04:28;97946.50;;;18.14;100.00
21869;BME280;11099;41.564;23.296;2023-09-18T04:06:54;97924.25;;;18.17;100.00
21869;BME280;11099;41.564;23.296;2023-09-18T04:09:19;97918.50;;;17.62;100.00
21869;BME280;11099;41.564;23.296;2023-09-18T04:11:45;97938.94;;;17.76;100.00
21869;BME280;11099;41.564;23.296;2023-09-18T04:14:10;97897.59;;;17.84;100.00
21869;BME280;11099;41.564;23.296;2023-09-18T04:16:36;98002.28;;;18.69;100.00
21869;BME280;11099;41.564;23.296;2023-09-18T04:19:03;98006.63;;;18.74;100.00
21869;BME280;11099;41.564;23.296;2023-09-18T04:21:29;97934.88;;;18.26;100.00
21869;BME280;11099;41.564;23.296;2023-09-18T04:23:55;98014.72;;;18.74;100.00
21869;BME280;11099;41.564;23.296;2023-09-18T04:26:26;97992.50;;;18.21;100.00
21869;BME280;11099;41.564;23.296;2023-09-18T04:28:56;98000.16;;;17.91;100.00
21869;BME280;11099;41.564;23.296;2023-09-18T04:31:22;97941.75;;;17.95;100.00
21869;BME280;11099;41.564;23.296;2023-09-18T04:33:47;98007.44;;;18.47;100.00
21869;BME280;11099;41.564;23.296;2023-09-18T04:36:13;98018.25;;;18.06;100.00
21869;BME280;11099;41.564;23.296;2023-09-18T04:38:39;97901.13;;;17.32;100.00
21869;BME280;11099;41.564;23.296;2023-09-18T04:41:04;98027.78;;;18.16;100.00
21869;BME280;11099;41.564;23.296;2023-09-18T04:43:33;98012.88;;;18.06;100.00
21869;BME280;11099;41.564;23.296;2023-09-18T04:46:00;97987.16;;;18.09;100.00
21869;BME280;11099;41.564;23.296;2023-09-18T04:48:27;97993.16;;;17.90;100.00
21869;BME280;11099;41.564;23.296;2023-09-18T04:50:53;98027.00;;;18.15;100.00
21869;BME280;11099;41.564;23.296;2023-09-18T04:53:18;98012.75;;;18.15;100.00
21869;BME280;11099;41.564;23.296;2023-09-18T04:55:45;97968.09;;;18.02;100.00
21869;BME280;11099;41.564;23.296;2023-09-18T04:58:14;98026.03;;;18.24;100.00
21869;BME280;11099;41.564;23.296;2023-09-18T05:00:40;98003.63;;;18.63;100.00
21869;BME280;11099;41.564;23.296;2023-09-18T05:03:07;98022.38;;;19.04;100.00
21869;BME280;11099;41.564;23.296;2023-09-18T05:05:34;97987.97;;;19.16;100.00
21869;BME280;11099;41.564;23.296;2023-09-18T05:08:01;98033.63;;;19.72;100.00
21869;BME280;11099;41.564;23.296;2023-09-18T05:10:28;98046.91;;;20.55;100.00
21869;BME280;11099;41.564;23.296;2023-09-18T05:12:54;98048.19;;;20.61;100.00
21869;BME280;11099;41.564;23.296;2023-09-18T05:15:24;98050.31;;;20.13;100.00
21869;BME280;11099;41.564;23.296;2023-09-18T05:17:51;97953.31;;;19.89;100.00
21869;BME280;11099;41.564;23.296;2023-09-18T05:20:21;97937.19;;;20.35;100.00
21869;BME280;11099;41.564;23.296;2023-09-18T05:22:49;98055.72;;;20.94;100.00
21869;BME280;11099;41.564;23.296;2023-09-18T05:25:15;98023.94;;;21.37;100.00
21869;BME280;11099;41.564;23.296;2023-09-18T05:27:41;97905.50;;;20.35;100.00
21869;BME280;11099;41.564;23.296;2023-09-18T05:30:19;98032.22;;;20.37;100.00
21869;BME280;11099;41.564;23.296;2023-09-18T05:32:48;98057.84;;;20.43;100.00
21869;BME280;11099;41.564;23.296;2023-09-18T05:35:14;97977.91;;;20.22;100.00
21869;BME280;11099;41.564;23.296;2023-09-18T05:37:41;98038.63;;;19.90;100.00
21869;BME280;11099;41.564;23.296;2023-09-18T05:40:08;97991.19;;;19.92;100.00
21869;BME280;11099;41.564;23.296;2023-09-18T05:42:35;97994.16;;;20.26;100.00
21869;BME280;11099;41.564;23.296;2023-09-18T05:45:02;98060.72;;;21.15;100.00
21869;BME280;11099;41.564;23.296;2023-09-18T05:47:30;98019.53;;;20.60;100.00
21869;BME280;11099;41.564;23.296;2023-09-18T05:49:57;98071.53;;;20.50;100.00
21869;BME280;11099;41.564;23.296;2023-09-18T05:52:22;97966.31;;;19.64;100.00
21869;BME280;11099;41.564;23.296;2023-09-18T05:54:49;98023.91;;;20.26;100.00
21869;BME280;11099;41.564;23.296;2023-09-18T05:57:15;97963.31;;;20.08;100.00
21869;BME280;11099;41.564;23.296;2023-09-18T05:59:41;97997.28;;;19.70;100.00
21869;BME280;11099;41.564;23.296;2023-09-18T06:02:09;98036.84;;;20.36;100.00
21869;BME280;11099;41.564;23.296;2023-09-18T06:04:34;98003.28;;;20.57;100.00
21869;BME280;11099;41.564;23.296;2023-09-18T06:07:03;98032.22;;;20.37;100.00
21869;BME280;11099;41.564;23.296;2023-09-18T06:09:28;97992.75;;;19.93;100.00
21869;BME280;11099;41.564;23.296;2023-09-18T06:11:54;98049.00;;;20.65;100.00
21869;BME280;11099;41.564;23.296;2023-09-18T06:14:19;98031.09;;;20.57;100.00
21869;BME280;11099;41.564;23.296;2023-09-18T06:16:45;97989.47;;;19.49;100.00
21869;BME280;11099;41.564;23.296;2023-09-18T06:19:10;98000.63;;;19.63;100.00
21869;BME280;11099;41.564;23.296;2023-09-18T06:21:36;98030.94;;;19.72;100.00
21869;BME280;11099;41.564;23.296;2023-09-18T06:24:02;97989.78;;;19.79;100.00
21869;BME280;11099;41.564;23.296;2023-09-18T06:26:27;98026.59;;;20.26;100.00
21869;BME280;11099;41.564;23.296;2023-09-18T06:28:53;97985.34;;;19.71;100.00
21869;BME280;11099;41.564;23.296;2023-09-18T06:31:20;98047.47;;;20.45;100.00
21869;BME280;11099;41.564;23.296;2023-09-18T06:33:46;97997.31;;;20.28;100.00
21869;BME280;11099;41.564;23.296;2023-09-18T06:36:13;98037.16;;;20.50;100.00
21869;BME280;11099;41.564;23.296;2023-09-18T06:38:38;98039.69;;;20.63;100.00
21869;BME280;11099;41.564;23.296;2023-09-18T06:41:04;98056.59;;;20.56;100.00
21869;BME280;11099;41.564;23.296;2023-09-18T06:43:30;98056.63;;;20.60;100.00
21869;BME280;11099;41.564;23.296;2023-09-18T06:45:56;98096.03;;;20.99;100.00
21869;BME280;11099;41.564;23.296;2023-09-18T06:48:24;98047.13;;;20.46;100.00
21869;BME280;11099;41.564;23.296;2023-09-18T06:50:49;97984.94;;;20.08;100.00
21869;BME280;11099;41.564;23.296;2023-09-18T06:53:15;98065.53;;;20.60;100.00
21869;BME280;11099;41.564;23.296;2023-09-18T06:55:40;98079.66;;;20.50;100.00
21869;BME280;11099;41.564;23.296;2023-09-18T06:58:06;98096.88;;;20.61;100.00
21869;BME280;11099;41.564;23.296;2023-09-18T07:00:32;97971.84;;;19.36;100.00
21869;BME280;11099;41.564;23.296;2023-09-18T07:02:57;98013.59;;;19.93;100.00
21869;BME280;11099;41.564;23.296;2023-09-18T07:05:23;97969.09;;;19.87;100.00
21869;BME280;11099;41.564;23.296;2023-09-18T07:07:48;98074.34;;;20.38;100.00
21869;BME280;11099;41.564;23.296;2023-09-18T07:10:14;98016.25;;;20.28;100.00
21869;BME280;11099;41.564;23.296;2023-09-18T07:12:39;97929.34;;;19.87;100.00
21869;BME280;11099;41.564;23.296;2023-09-18T07:15:06;98019.91;;;20.59;100.00
21869;BME280;11099;41.564;23.296;2023-09-18T07:17:33;98052.41;;;21.04;100.00
21869;BME280;11099;41.564;23.296;2023-09-18T07:20:00;97977.66;;;20.50;100.00
21869;BME280;11099;41.564;23.296;2023-09-18T07:22:26;98021.25;;;20.68;100.00
21869;BME280;11099;41.564;23.296;2023-09-18T07:24:54;98003.66;;;20.78;100.00
21869;BME280;11099;41.564;23.296;2023-09-18T07:27:20;98073.16;;;21.69;100.00
21869;BME280;11099;41.564;23.296;2023-09-18T07:29:45;98081.09;;;21.55;100.00
21869;BME280;11099;41.564;23.296;2023-09-18T07:32:11;98062.16;;;21.58;100.00
21869;BME280;11099;41.564;23.296;2023-09-18T07:34:37;97964.19;;;21.00;100.00
21869;BME280;11099;41.564;23.296;2023-09-18T07:37:02;98001.78;;;21.58;100.00
21869;BME280;11099;41.564;23.296;2023-09-18T07:39:28;98081.13;;;21.85;100.00
21869;BME280;11099;41.564;23.296;2023-09-18T07:41:54;97941.69;;;20.96;100.00
21869;BME280;11099;41.564;23.296;2023-09-18T07:44:21;98109.06;;;22.46;100.00
21869;BME280;11099;41.564;23.296;2023-09-18T07:46:47;98055.91;;;22.78;100.00
21869;BME280;11099;41.564;23.296;2023-09-18T07:49:12;98051.81;;;23.36;100.00
21869;BME280;11099;41.564;23.296;2023-09-18T07:51:39;98051.09;;;23.50;100.00
21869;BME280;11099;41.564;23.296;2023-09-18T07:54:06;98012.19;;;23.31;100.00
21869;BME280;11099;41.564;23.296;2023-09-18T07:56:32;98038.69;;;23.49;100.00
21869;BME280;11099;41.564;23.296;2023-09-18T07:58:59;97976.75;;;22.69;100.00
21869;BME280;11099;41.564;23.296;2023-09-18T08:01:25;97990.56;;;23.49;100.00
21869;BME280;11099;41.564;23.296;2023-09-18T08:03:51;98051.06;;;23.43;100.00
21869;BME280;11099;41.564;23.296;2023-09-18T08:06:17;97987.66;;;23.79;100.00
21869;BME280;11099;41.564;23.296;2023-09-18T08:08:45;98070.72;;;24.60;100.00
21869;BME280;11099;41.564;23.296;2023-09-18T08:11:10;98012.81;;;24.81;99.95
21869;BME280;11099;41.564;23.296;2023-09-18T08:13:36;98076.25;;;25.03;98.29
21869;BME280;11099;41.564;23.296;2023-09-18T08:16:05;98050.75;;;24.28;98.18
21869;BME280;11099;41.564;23.296;2023-09-18T08:18:31;98019.69;;;24.25;100.00
21869;BME280;11099;41.564;23.296;2023-09-18T08:20:57;98000.25;;;24.27;100.00
21869;BME280;11099;41.564;23.296;2023-09-18T08:23:24;98010.88;;;24.82;98.52
21869;BME280;11099;41.564;23.296;2023-09-18T08:25:50;98002.69;;;24.67;98.00
21869;BME280;11099;41.564;23.296;2023-09-18T08:28:17;98027.56;;;24.66;99.20
21869;BME280;11099;41.564;23.296;2023-09-18T08:30:43;98029.53;;;24.94;98.47
21869;BME280;11099;41.564;23.296;2023-09-18T08:33:15;97968.47;;;24.45;98.38
21869;BME280;11099;41.564;23.296;2023-09-18T08:35:41;98049.00;;;24.78;99.84
21869;BME280;11099;41.564;23.296;2023-09-18T08:38:07;97955.47;;;23.96;100.00
21869;BME280;11099;41.564;23.296;2023-09-18T08:40:33;98026.44;;;24.85;99.21
21869;BME280;11099;41.564;23.296;2023-09-18T08:43:00;97994.94;;;24.73;97.98
21869;BME280;11099;41.564;23.296;2023-09-18T08:48:15;98031.53;;;25.29;95.13
21869;BME280;11099;41.564;23.296;2023-09-18T08:50:41;98029.53;;;25.72;93.49
21869;BME280;11099;41.564;23.296;2023-09-18T08:53:08;97991.81;;;25.03;93.82
21869;BME280;11099;41.564;23.296;2023-09-18T08:55:33;98026.72;;;25.97;93.55
21869;BME280;11099;41.564;23.296;2023-09-18T08:57:59;98025.41;;;26.38;91.24
21869;BME280;11099;41.564;23.296;2023-09-18T09:00:26;98026.16;;;26.45;90.88
21869;BME280;11099;41.564;23.296;2023-09-18T09:02:52;97916.91;;;25.86;90.34
21869;BME280;11099;41.564;23.296;2023-09-18T09:05:22;97965.44;;;26.20;88.37
21869;BME280;11099;41.564;23.296;2023-09-18T09:07:49;98025.78;;;26.43;88.57
21869;BME280;11099;41.564;23.296;2023-09-18T09:10:15;97954.81;;;25.45;90.63
21869;BME280;11099;41.564;23.296;2023-09-18T09:12:58;98018.13;;;26.06;91.41
21869;BME280;11099;41.564;23.296;2023-09-18T09:15:32;98017.69;;;26.22;90.26
21869;BME280;11099;41.564;23.296;2023-09-18T09:18:05;98015.09;;;25.65;90.10
21869;BME280;11099;41.564;23.296;2023-09-18T09:20:31;98017.38;;;26.02;88.85
21869;BME280;11099;41.564;23.296;2023-09-18T09:23:01;97997.25;;;24.82;93.10
21869;BME280;11099;41.564;23.296;2023-09-18T09:25:29;97924.50;;;24.61;94.10
21869;BME280;11099;41.564;23.296;2023-09-18T09:27:58;98011.50;;;26.11;89.04
21869;BME280;11099;41.564;23.296;2023-09-18T09:30:26;97918.53;;;25.62;89.09
21869;BME280;11099;41.564;23.296;2023-09-18T09:32:54;98000.28;;;26.68;86.41
21869;BME280;11099;41.564;23.296;2023-09-18T09:35:24;97955.22;;;26.31;86.87
21869;BME280;11099;41.564;23.296;2023-09-18T09:38:06;97961.09;;;26.30;86.78
21869;BME280;11099;41.564;23.296;2023-09-18T09:40:32;97990.31;;;26.92;82.98
21869;BME280;11099;41.564;23.296;2023-09-18T09:42:58;97964.50;;;27.00;81.49
21869;BME280;11099;41.564;23.296;2023-09-18T09:45:30;97888.75;;;26.59;82.14
21869;BME280;11099;41.564;23.296;2023-09-18T09:48:01;97900.78;;;26.69;82.41
21869;BME280;11099;41.564;23.296;2023-09-18T09:50:30;97982.06;;;27.47;81.29
21869;BME280;11099;41.564;23.296;2023-09-18T09:52:58;97969.50;;;27.53;78.96
21869;BME280;11099;41.564;23.296;2023-09-18T09:55:29;97903.47;;;27.17;78.73
21869;BME280;11099;41.564;23.296;2023-09-18T09:58:00;97899.72;;;26.97;76.06
21869;BME280;11099;41.564;23.296;2023-09-18T10:00:31;97957.53;;;26.40;78.14
21869;BME280;11099;41.564;23.296;2023-09-18T10:03:03;97970.22;;;26.71;77.21
21869;BME280;11099;41.564;23.296;2023-09-18T10:05:34;97903.81;;;26.78;71.52
21869;BME280;11099;41.564;23.296;2023-09-18T10:08:06;97920.91;;;27.30;71.48
21869;BME280;11099;41.564;23.296;2023-09-18T10:10:36;97928.91;;;27.48;71.92
21869;BME280;11099;41.564;23.296;2023-09-18T10:13:10;97875.88;;;27.04;73.62
21869;BME280;11099;41.564;23.296;2023-09-18T10:15:38;97905.34;;;27.58;68.69
21869;BME280;11099;41.564;23.296;2023-09-18T10:18:15;97930.50;;;28.10;65.76
21869;BME280;11099;41.564;23.296;2023-09-18T10:20:44;97897.31;;;27.78;66.72
21869;BME280;11099;41.564;23.296;2023-09-18T10:23:51;97921.22;;;28.04;66.36
21869;BME280;11099;41.564;23.296;2023-09-18T10:26:23;97902.88;;;28.01;64.36
21869;BME280;11099;41.564;23.296;2023-09-18T10:28:56;97834.41;;;27.47;65.03
21869;BME280;11099;41.564;23.296;2023-09-18T10:31:28;97911.69;;;28.43;63.18
21869;BME280;11099;41.564;23.296;2023-09-18T10:33:58;97905.31;;;26.86;67.65
21869;BME280;11099;41.564;23.296;2023-09-18T10:36:25;97911.00;;;28.08;63.66
21869;BME280;11099;41.564;23.296;2023-09-18T10:38:52;97910.38;;;28.24;62.60
21869;BME280;11099;41.564;23.296;2023-09-18T10:41:22;97873.84;;;28.07;60.80
21869;BME280;11099;41.564;23.296;2023-09-18T10:43:51;97877.84;;;28.30;59.44
21869;BME280;11099;41.564;23.296;2023-09-18T10:46:18;97886.13;;;28.73;57.05
21869;BME280;11099;41.564;23.296;2023-09-18T10:48:45;97886.13;;;28.50;56.37
21869;BME280;11099;41.564;23.296;2023-09-18T10:51:12;97872.28;;;28.60;55.62
21869;BME280;11099;41.564;23.296;2023-09-18T10:53:40;97890.75;;;28.80;53.75
21869;BME280;11099;41.564;23.296;2023-09-18T10:56:05;97883.59;;;28.63;53.10
21869;BME280;11099;41.564;23.296;2023-09-18T10:58:41;97873.53;;;28.56;53.61
21869;BME280;11099;41.564;23.296;2023-09-18T11:01:11;97834.88;;;28.50;51.00
21869;BME280;11099;41.564;23.296;2023-09-18T11:03:37;97849.63;;;28.56;55.28
21869;BME280;11099;41.564;23.296;2023-09-18T11:06:05;97848.41;;;28.38;54.49
21869;BME280;11099;41.564;23.296;2023-09-18T11:08:36;97868.88;;;29.00;53.42
21869;BME280;11099;41.564;23.296;2023-09-18T11:11:10;97841.69;;;29.09;52.26
21869;BME280;11099;41.564;23.296;2023-09-18T11:13:41;97826.22;;;29.19;50.86
21869;BME280;11099;41.564;23.296;2023-09-18T11:18:41;97791.38;;;27.51;52.41
21869;BME280;11099;41.564;23.296;2023-09-18T11:21:11;97843.22;;;28.67;51.76
21869;BME280;11099;41.564;23.296;2023-09-18T11:23:38;97817.13;;;27.54;52.83
21869;BME280;11099;41.564;23.296;2023-09-18T11:26:09;97750.47;;;27.44;52.17
21869;BME280;11099;41.564;23.296;2023-09-18T11:28:35;97808.94;;;28.78;50.20
21869;BME280;11099;41.564;23.296;2023-09-18T11:31:03;97780.16;;;28.70;49.49
21869;BME280;11099;41.564;23.296;2023-09-18T11:36:02;97812.09;;;28.77;49.34
21869;BME280;11099;41.564;23.296;2023-09-18T11:38:29;97739.66;;;28.15;50.22
21869;BME280;11099;41.564;23.296;2023-09-18T11:40:54;97811.13;;;28.44;49.73
21869;BME280;11099;41.564;23.296;2023-09-18T11:45:53;97809.44;;;28.97;47.55
21869;BME280;11099;41.564;23.296;2023-09-18T11:48:21;97812.53;;;29.19;47.88
21869;BME280;11099;41.564;23.296;2023-09-18T11:50:50;97761.47;;;28.85;48.01
21869;BME280;11099;41.564;23.296;2023-09-18T11:53:17;97728.69;;;28.15;48.48
21869;BME280;11099;41.564;23.296;2023-09-18T11:55:47;97802.97;;;28.40;50.34
21869;BME280;11099;41.564;23.296;2023-09-18T11:58:14;97801.53;;;28.99;48.93
21869;BME280;11099;41.564;23.296;2023-09-18T12:00:40;97795.72;;;29.17;48.50
21869;BME280;11099;41.564;23.296;2023-09-18T12:03:21;97797.06;;;29.08;48.67
21869;BME280;11099;41.564;23.296;2023-09-18T12:05:59;97795.09;;;29.29;48.26
21869;BME280;11099;41.564;23.296;2023-09-18T12:08:25;97753.84;;;28.96;48.07
21869;BME280;11099;41.564;23.296;2023-09-18T12:10:54;97755.44;;;29.13;48.32
21869;BME280;11099;41.564;23.296;2023-09-18T12:13:19;97703.28;;;28.77;47.08
21869;BME280;11099;41.564;23.296;2023-09-18T12:15:46;97779.56;;;29.58;46.08
21869;BME280;11099;41.564;23.296;2023-09-18T12:18:14;97782.81;;;29.89;46.25
21869;BME280;11099;41.564;23.296;2023-09-18T12:20:47;97759.19;;;29.76;46.14
21869;BME280;11099;41.564;23.296;2023-09-18T12:23:14;97774.66;;;30.18;45.34
21869;BME280;11099;41.564;23.296;2023-09-18T12:25:40;97757.50;;;30.14;45.05
21869;BME280;11099;41.564;23.296;2023-09-18T12:28:07;97709.88;;;29.72;44.52
21869;BME280;11099;41.564;23.296;2023-09-18T12:30:35;97778.03;;;29.57;45.65
21869;BME280;11099;41.564;23.296;2023-09-18T12:33:01;97751.38;;;29.58;44.70
21869;BME280;11099;41.564;23.296;2023-09-18T12:35:27;97773.94;;;29.98;43.69
21869;BME280;11099;41.564;23.296;2023-09-18T12:37:59;97725.75;;;29.81;44.35
21869;BME280;11099;41.564;23.296;2023-09-18T12:40:30;97765.22;;;30.36;43.78
21869;BME280;11099;41.564;23.296;2023-09-18T12:42:58;97755.19;;;30.29;44.33
21869;BME280;11099;41.564;23.296;2023-09-18T12:45:25;97741.53;;;29.93;43.13
21869;BME280;11099;41.564;23.296;2023-09-18T12:47:54;97724.81;;;29.71;43.31
21869;BME280;11099;41.564;23.296;2023-09-18T12:50:20;97749.50;;;29.87;43.44
21869;BME280;11099;41.564;23.296;2023-09-18T12:52:45;97735.19;;;29.96;43.37
21869;BME280;11099;41.564;23.296;2023-09-18T12:55:24;97751.41;;;29.90;43.03